sensor_id;sensor_type;location;lat;lon;timestamp;P1;durP1;ratioP1;P2;durP2;ratioP2
50709;SDS011;37033;49.994;21.992;2022-12-29T00:01:22;7.40;;;4.40;;
50709;SDS011;37033;49.994;21.992;2022-12-29T00:04:12;7.20;;;5.00;;
50709;SDS011;37033;49.994;21.992;2022-12-29T00:07:02;8.50;;;4.20;;
50709;SDS011;37033;49.994;21.992;2022-12-29T00:09:52;7.60;;;4.80;;
50709;SDS011;37033;49.994;21.992;2022-12-29T00:12:42;8.30;;;4.70;;
50709;SDS011;37033;49.994;21.992;2022-12-29T00:16:05;11.00;;;4.70;;
50709;SDS011;37033;49.994;21.992;2022-12-29T00:18:56;8.40;;;4.90;;
50709;SDS011;37033;49.994;21.992;2022-12-29T00:21:47;9.50;;;4.40;;
50709;SDS011;37033;49.994;21.992;2022-12-29T00:24:54;6.20;;;4.50;;
50709;SDS011;37033;49.994;21.992;2022-12-29T00:28:02;5.90;;;3.80;;
50709;SDS011;37033;49.994;21.992;2022-12-29T00:31:11;8.30;;;5.00;;
50709;SDS011;37033;49.994;21.992;2022-12-29T00:34:21;12.80;;;4.10;;
50709;SDS011;37033;49.994;21.992;2022-12-29T00:37:29;6.10;;;4.40;;
50709;SDS011;37033;49.994;21.992;2022-12-29T00:40:33;5.50;;;4.00;;
50709;SDS011;37033;49.994;21.992;2022-12-29T00:43:41;8.90;;;4.00;;
50709;SDS011;37033;49.994;21.992;2022-12-29T00:46:49;7.70;;;4.30;;
50709;SDS011;37033;49.994;21.992;2022-12-29T00:49:39;4.20;;;3.70;;
50709;SDS011;37033;49.994;21.992;2022-12-29T00:52:29;7.20;;;4.30;;
50709;SDS011;37033;49.994;21.992;2022-12-29T00:55:19;6.40;;;3.80;;
50709;SDS011;37033;49.994;21.992;2022-12-29T00:58:09;7.60;;;4.40;;
50709;SDS011;37033;49.994;21.992;2022-12-29T01:01:02;6.80;;;4.10;;
50709;SDS011;37033;49.994;21.992;2022-12-29T01:03:53;6.50;;;4.40;;
50709;SDS011;37033;49.994;21.992;2022-12-29T01:06:43;6.50;;;3.30;;
50709;SDS011;37033;49.994;21.992;2022-12-29T01:09:33;7.60;;;3.80;;
50709;SDS011;37033;49.994;21.992;2022-12-29T01:12:40;6.50;;;3.70;;
50709;SDS011;37033;49.994;21.992;2022-12-29T01:15:31;6.50;;;4.20;;
50709;SDS011;37033;49.994;21.992;2022-12-29T01:18:21;5.80;;;4.10;;
50709;SDS011;37033;49.994;21.992;2022-12-29T01:21:12;5.30;;;4.10;;
50709;SDS011;37033;49.994;21.992;2022-12-29T01:24:02;5.50;;;3.80;;
50709;SDS011;37033;49.994;21.992;2022-12-29T01:26:53;4.30;;;3.20;;
50709;SDS011;37033;49.994;21.992;2022-12-29T01:29:43;5.40;;;3.70;;
50709;SDS011;37033;49.994;21.992;2022-12-29T01:32:33;6.50;;;3.60;;
50709;SDS011;37033;49.994;21.992;2022-12-29T01:35:24;4.90;;;3.30;;
50709;SDS011;37033;49.994;21.992;2022-12-29T01:38:13;6.60;;;3.20;;
50709;SDS011;37033;49.994;21.992;2022-12-29T01:41:04;6.80;;;3.70;;
50709;SDS011;37033;49.994;21.992;2022-12-29T01:43:55;6.30;;;3.60;;
50709;SDS011;37033;49.994;21.992;2022-12-29T01:46:48;5.50;;;3.30;;
50709;SDS011;37033;49.994;21.992;2022-12-29T01:49:39;5.60;;;3.40;;
50709;SDS011;37033;49.994;21.992;2022-12-29T01:52:29;5.50;;;3.10;;
50709;SDS011;37033;49.994;21.992;2022-12-29T01:55:23;5.00;;;3.30;;
50709;SDS011;37033;49.994;21.992;2022-12-29T01:58:14;5.20;;;3.30;;
50709;SDS011;37033;49.994;21.992;2022-12-29T02:01:08;4.80;;;3.90;;
50709;SDS011;37033;49.994;21.992;2022-12-29T02:03:59;7.10;;;3.60;;
50709;SDS011;37033;49.994;21.992;2022-12-29T02:06:49;8.40;;;4.00;;
50709;SDS011;37033;49.994;21.992;2022-12-29T02:09:43;4.60;;;2.90;;
50709;SDS011;37033;49.994;21.992;2022-12-29T02:12:34;6.50;;;3.10;;
50709;SDS011;37033;49.994;21.992;2022-12-29T02:15:30;3.90;;;2.80;;
50709;SDS011;37033;49.994;21.992;2022-12-29T02:18:28;4.50;;;2.90;;
50709;SDS011;37033;49.994;21.992;2022-12-29T02:21:33;11.10;;;3.60;;
50709;SDS011;37033;49.994;21.992;2022-12-29T02:24:47;5.20;;;2.60;;
50709;SDS011;37033;49.994;21.992;2022-12-29T02:27:52;3.80;;;3.00;;
50709;SDS011;37033;49.994;21.992;2022-12-29T02:30:59;3.40;;;2.60;;
50709;SDS011;37033;49.994;21.992;2022-12-29T02:33:59;3.70;;;2.70;;
50709;SDS011;37033;49.994;21.992;2022-12-29T02:36:58;3.30;;;2.40;;
50709;SDS011;37033;49.994;21.992;2022-12-29T02:39:56;7.60;;;3.90;;
50709;SDS011;37033;49.994;21.992;2022-12-29T02:42:55;6.70;;;2.50;;
50709;SDS011;37033;49.994;21.992;2022-12-29T02:45:53;3.70;;;2.40;;
50709;SDS011;37033;49.994;21.992;2022-12-29T02:48:47;4.20;;;2.90;;
50709;SDS011;37033;49.994;21.992;2022-12-29T02:51:46;3.60;;;2.40;;
50709;SDS011;37033;49.994;21.992;2022-12-29T02:54:44;3.50;;;2.30;;
50709;SDS011;37033;49.994;21.992;2022-12-29T02:57:35;3.90;;;2.50;;
50709;SDS011;37033;49.994;21.992;2022-12-29T03:00:25;3.50;;;1.80;;
50709;SDS011;37033;49.994;21.992;2022-12-29T03:03:18;3.40;;;2.40;;
50709;SDS011;37033;49.994;21.992;2022-12-29T03:06:24;3.90;;;2.20;;
50709;SDS011;37033;49.994;21.992;2022-12-29T03:09:29;5.00;;;2.60;;
50709;SDS011;37033;49.994;21.992;2022-12-29T03:12:29;5.40;;;2.50;;
50709;SDS011;37033;49.994;21.992;2022-12-29T03:15:43;4.30;;;2.60;;
50709;SDS011;37033;49.994;21.992;2022-12-29T03:18:52;6.20;;;1.80;;
50709;SDS011;37033;49.994;21.992;2022-12-29T03:21:48;4.90;;;2.10;;
50709;SDS011;37033;49.994;21.992;2022-12-29T03:25:00;3.20;;;2.30;;
50709;SDS011;37033;49.994;21.992;2022-12-29T03:27:55;4.40;;;2.70;;
50709;SDS011;37033;49.994;21.992;2022-12-29T03:30:48;5.30;;;2.20;;
50709;SDS011;37033;49.994;21.992;2022-12-29T03:33:39;3.70;;;2.70;;
50709;SDS011;37033;49.994;21.992;2022-12-29T03:36:34;5.90;;;2.20;;
50709;SDS011;37033;49.994;21.992;2022-12-29T03:39:32;3.00;;;2.20;;
50709;SDS011;37033;49.994;21.992;2022-12-29T03:42:23;2.70;;;2.20;;
50709;SDS011;37033;49.994;21.992;2022-12-29T03:45:15;3.30;;;2.20;;
50709;SDS011;37033;49.994;21.992;2022-12-29T03:48:06;3.30;;;2.30;;
50709;SDS011;37033;49.994;21.992;2022-12-29T03:50:56;3.20;;;1.80;;
50709;SDS011;37033;49.994;21.992;2022-12-29T03:53:45;2.30;;;2.00;;
50709;SDS011;37033;49.994;21.992;2022-12-29T03:56:35;3.40;;;2.10;;
50709;SDS011;37033;49.994;21.992;2022-12-29T03:59:25;2.30;;;1.50;;
50709;SDS011;37033;49.994;21.992;2022-12-29T04:02:16;5.80;;;2.00;;
50709;SDS011;37033;49.994;21.992;2022-12-29T04:05:06;4.20;;;1.90;;
50709;SDS011;37033;49.994;21.992;2022-12-29T04:07:57;2.80;;;2.20;;
50709;SDS011;37033;49.994;21.992;2022-12-29T04:10:47;3.20;;;2.00;;
50709;SDS011;37033;49.994;21.992;2022-12-29T04:13:37;2.80;;;1.70;;
50709;SDS011;37033;49.994;21.992;2022-12-29T04:16:27;2.70;;;1.60;;
50709;SDS011;37033;49.994;21.992;2022-12-29T04:19:17;3.30;;;1.60;;
50709;SDS011;37033;49.994;21.992;2022-12-29T04:22:07;3.80;;;1.90;;
50709;SDS011;37033;49.994;21.992;2022-12-29T04:24:58;2.20;;;2.00;;
50709;SDS011;37033;49.994;21.992;2022-12-29T04:27:48;2.00;;;1.80;;
50709;SDS011;37033;49.994;21.992;2022-12-29T04:30:38;2.30;;;1.80;;
50709;SDS011;37033;49.994;21.992;2022-12-29T04:33:28;3.30;;;1.80;;
50709;SDS011;37033;49.994;21.992;2022-12-29T04:36:19;2.20;;;1.70;;
50709;SDS011;37033;49.994;21.992;2022-12-29T04:39:09;7.80;;;1.80;;
50709;SDS011;37033;49.994;21.992;2022-12-29T04:41:59;2.30;;;1.60;;
50709;SDS011;37033;49.994;21.992;2022-12-29T04:44:49;3.80;;;2.10;;
50709;SDS011;37033;49.994;21.992;2022-12-29T04:47:39;2.40;;;1.70;;
50709;SDS011;37033;49.994;21.992;2022-12-29T04:50:29;6.50;;;3.70;;
50709;SDS011;37033;49.994;21.992;2022-12-29T04:53:19;4.60;;;2.20;;
50709;SDS011;37033;49.994;21.992;2022-12-29T04:56:09;3.90;;;2.00;;
50709;SDS011;37033;49.994;21.992;2022-12-29T04:58:59;3.90;;;1.50;;
50709;SDS011;37033;49.994;21.992;2022-12-29T05:01:49;2.80;;;1.90;;
50709;SDS011;37033;49.994;21.992;2022-12-29T05:04:39;3.10;;;1.80;;
50709;SDS011;37033;49.994;21.992;2022-12-29T05:07:28;3.00;;;1.60;;
50709;SDS011;37033;49.994;21.992;2022-12-29T05:10:20;2.10;;;1.40;;
50709;SDS011;37033;49.994;21.992;2022-12-29T05:13:10;7.10;;;1.90;;
50709;SDS011;37033;49.994;21.992;2022-12-29T05:16:00;6.80;;;2.00;;
50709;SDS011;37033;49.994;21.992;2022-12-29T05:18:51;3.90;;;1.90;;
50709;SDS011;37033;49.994;21.992;2022-12-29T05:21:40;3.90;;;1.80;;
50709;SDS011;37033;49.994;21.992;2022-12-29T05:24:31;3.70;;;1.80;;
50709;SDS011;37033;49.994;21.992;2022-12-29T05:27:20;3.20;;;1.80;;
50709;SDS011;37033;49.994;21.992;2022-12-29T05:30:11;4.10;;;2.20;;
50709;SDS011;37033;49.994;21.992;2022-12-29T05:33:01;5.80;;;2.20;;
50709;SDS011;37033;49.994;21.992;2022-12-29T05:35:53;2.90;;;1.70;;
50709;SDS011;37033;49.994;21.992;2022-12-29T05:38:43;7.40;;;2.30;;
50709;SDS011;37033;49.994;21.992;2022-12-29T05:41:33;3.80;;;2.10;;
50709;SDS011;37033;49.994;21.992;2022-12-29T05:44:23;4.90;;;1.90;;
50709;SDS011;37033;49.994;21.992;2022-12-29T05:47:13;3.50;;;2.60;;
50709;SDS011;37033;49.994;21.992;2022-12-29T05:50:04;3.90;;;1.80;;
50709;SDS011;37033;49.994;21.992;2022-12-29T05:52:54;4.30;;;2.20;;
50709;SDS011;37033;49.994;21.992;2022-12-29T05:55:44;4.20;;;2.40;;
50709;SDS011;37033;49.994;21.992;2022-12-29T05:58:36;4.00;;;2.30;;
50709;SDS011;37033;49.994;21.992;2022-12-29T06:01:25;3.50;;;2.30;;
50709;SDS011;37033;49.994;21.992;2022-12-29T06:04:15;2.60;;;2.00;;
50709;SDS011;37033;49.994;21.992;2022-12-29T06:07:05;2.50;;;1.80;;
50709;SDS011;37033;49.994;21.992;2022-12-29T06:09:55;4.00;;;2.00;;
50709;SDS011;37033;49.994;21.992;2022-12-29T06:12:45;4.40;;;2.40;;
50709;SDS011;37033;49.994;21.992;2022-12-29T06:15:34;3.60;;;2.10;;
50709;SDS011;37033;49.994;21.992;2022-12-29T06:18:24;5.00;;;2.40;;
50709;SDS011;37033;49.994;21.992;2022-12-29T06:21:14;3.50;;;1.90;;
50709;SDS011;37033;49.994;21.992;2022-12-29T06:24:05;4.50;;;1.80;;
50709;SDS011;37033;49.994;21.992;2022-12-29T06:26:57;5.10;;;2.70;;
50709;SDS011;37033;49.994;21.992;2022-12-29T06:29:47;4.00;;;1.90;;
50709;SDS011;37033;49.994;21.992;2022-12-29T06:32:36;3.00;;;2.40;;
50709;SDS011;37033;49.994;21.992;2022-12-29T06:35:26;4.20;;;2.40;;
50709;SDS011;37033;49.994;21.992;2022-12-29T06:38:16;3.30;;;2.50;;
50709;SDS011;37033;49.994;21.992;2022-12-29T06:41:06;5.10;;;2.20;;
50709;SDS011;37033;49.994;21.992;2022-12-29T06:43:57;2.60;;;1.80;;
50709;SDS011;37033;49.994;21.992;2022-12-29T06:46:47;3.20;;;2.30;;
50709;SDS011;37033;49.994;21.992;2022-12-29T06:49:38;3.20;;;2.20;;
50709;SDS011;37033;49.994;21.992;2022-12-29T06:52:28;3.40;;;2.00;;
50709;SDS011;37033;49.994;21.992;2022-12-29T06:55:18;8.20;;;2.60;;
50709;SDS011;37033;49.994;21.992;2022-12-29T06:58:07;5.30;;;2.40;;
50709;SDS011;37033;49.994;21.992;2022-12-29T07:00:58;3.40;;;2.20;;
50709;SDS011;37033;49.994;21.992;2022-12-29T07:03:47;5.80;;;2.90;;
50709;SDS011;37033;49.994;21.992;2022-12-29T07:06:37;3.20;;;2.30;;
50709;SDS011;37033;49.994;21.992;2022-12-29T07:09:28;3.70;;;2.30;;
50709;SDS011;37033;49.994;21.992;2022-12-29T07:12:18;3.60;;;2.30;;
50709;SDS011;37033;49.994;21.992;2022-12-29T07:15:08;5.10;;;2.50;;
50709;SDS011;37033;49.994;21.992;2022-12-29T07:17:59;4.60;;;2.20;;
50709;SDS011;37033;49.994;21.992;2022-12-29T07:20:50;3.80;;;2.80;;
50709;SDS011;37033;49.994;21.992;2022-12-29T07:23:40;5.30;;;2.80;;
50709;SDS011;37033;49.994;21.992;2022-12-29T07:26:29;5.50;;;2.50;;
50709;SDS011;37033;49.994;21.992;2022-12-29T07:29:20;3.50;;;2.40;;
50709;SDS011;37033;49.994;21.992;2022-12-29T07:32:10;4.40;;;2.50;;
50709;SDS011;37033;49.994;21.992;2022-12-29T07:35:00;2.90;;;2.40;;
50709;SDS011;37033;49.994;21.992;2022-12-29T07:37:51;4.40;;;2.30;;
50709;SDS011;37033;49.994;21.992;2022-12-29T07:40:41;10.40;;;2.50;;
50709;SDS011;37033;49.994;21.992;2022-12-29T07:43:30;3.80;;;2.90;;
50709;SDS011;37033;49.994;21.992;2022-12-29T07:46:20;6.50;;;2.20;;
50709;SDS011;37033;49.994;21.992;2022-12-29T07:49:10;5.00;;;3.10;;
50709;SDS011;37033;49.994;21.992;2022-12-29T07:52:00;5.40;;;2.90;;
50709;SDS011;37033;49.994;21.992;2022-12-29T07:54:50;4.20;;;3.00;;
50709;SDS011;37033;49.994;21.992;2022-12-29T07:57:40;3.80;;;2.50;;
50709;SDS011;37033;49.994;21.992;2022-12-29T08:00:30;8.20;;;3.90;;
50709;SDS011;37033;49.994;21.992;2022-12-29T08:03:20;3.70;;;2.80;;
50709;SDS011;37033;49.994;21.992;2022-12-29T08:06:10;3.90;;;2.70;;
50709;SDS011;37033;49.994;21.992;2022-12-29T08:09:00;4.50;;;2.60;;
50709;SDS011;37033;49.994;21.992;2022-12-29T08:11:49;4.40;;;2.60;;
50709;SDS011;37033;49.994;21.992;2022-12-29T08:14:39;5.40;;;3.00;;
50709;SDS011;37033;49.994;21.992;2022-12-29T08:17:29;3.60;;;2.50;;
50709;SDS011;37033;49.994;21.992;2022-12-29T08:20:19;5.00;;;2.60;;
50709;SDS011;37033;49.994;21.992;2022-12-29T08:23:09;7.60;;;3.90;;
50709;SDS011;37033;49.994;21.992;2022-12-29T08:26:00;4.30;;;2.50;;
50709;SDS011;37033;49.994;21.992;2022-12-29T08:28:53;4.00;;;3.00;;
50709;SDS011;37033;49.994;21.992;2022-12-29T08:31:43;4.10;;;3.30;;
50709;SDS011;37033;49.994;21.992;2022-12-29T08:34:33;4.70;;;2.50;;
50709;SDS011;37033;49.994;21.992;2022-12-29T08:37:23;4.80;;;3.00;;
50709;SDS011;37033;49.994;21.992;2022-12-29T08:40:13;6.00;;;3.10;;
50709;SDS011;37033;49.994;21.992;2022-12-29T08:43:03;3.30;;;2.70;;
50709;SDS011;37033;49.994;21.992;2022-12-29T08:45:53;5.20;;;3.00;;
50709;SDS011;37033;49.994;21.992;2022-12-29T08:48:43;5.00;;;2.90;;
50709;SDS011;37033;49.994;21.992;2022-12-29T08:51:33;4.40;;;2.80;;
50709;SDS011;37033;49.994;21.992;2022-12-29T08:54:23;4.90;;;3.00;;
50709;SDS011;37033;49.994;21.992;2022-12-29T08:57:13;6.90;;;2.80;;
50709;SDS011;37033;49.994;21.992;2022-12-29T09:00:04;5.30;;;2.60;;
50709;SDS011;37033;49.994;21.992;2022-12-29T09:02:55;4.30;;;2.90;;
50709;SDS011;37033;49.994;21.992;2022-12-29T09:05:46;6.10;;;3.20;;
50709;SDS011;37033;49.994;21.992;2022-12-29T09:08:37;4.10;;;3.10;;
50709;SDS011;37033;49.994;21.992;2022-12-29T09:11:27;4.90;;;3.10;;
50709;SDS011;37033;49.994;21.992;2022-12-29T09:14:17;5.50;;;3.60;;
50709;SDS011;37033;49.994;21.992;2022-12-29T09:17:08;5.90;;;3.10;;
50709;SDS011;37033;49.994;21.992;2022-12-29T09:20:16;5.50;;;2.90;;
50709;SDS011;37033;49.994;21.992;2022-12-29T09:23:07;4.00;;;2.60;;
50709;SDS011;37033;49.994;21.992;2022-12-29T09:25:57;4.80;;;3.40;;
50709;SDS011;37033;49.994;21.992;2022-12-29T09:28:47;5.10;;;2.80;;
50709;SDS011;37033;49.994;21.992;2022-12-29T09:31:37;5.30;;;3.30;;
50709;SDS011;37033;49.994;21.992;2022-12-29T09:34:26;5.50;;;3.10;;
50709;SDS011;37033;49.994;21.992;2022-12-29T09:37:16;6.00;;;3.40;;
50709;SDS011;37033;49.994;21.992;2022-12-29T09:40:09;3.50;;;2.80;;
50709;SDS011;37033;49.994;21.992;2022-12-29T09:43:21;4.60;;;3.10;;
50709;SDS011;37033;49.994;21.992;2022-12-29T09:46:21;5.30;;;2.90;;
50709;SDS011;37033;49.994;21.992;2022-12-29T09:49:18;5.10;;;2.50;;
50709;SDS011;37033;49.994;21.992;2022-12-29T09:52:13;4.90;;;3.00;;
50709;SDS011;37033;49.994;21.992;2022-12-29T09:55:09;8.60;;;3.00;;
50709;SDS011;37033;49.994;21.992;2022-12-29T09:58:03;7.10;;;3.90;;
50709;SDS011;37033;49.994;21.992;2022-12-29T10:01:00;7.90;;;3.40;;
50709;SDS011;37033;49.994;21.992;2022-12-29T10:03:52;5.00;;;3.10;;
50709;SDS011;37033;49.994;21.992;2022-12-29T10:06:45;5.70;;;3.80;;
50709;SDS011;37033;49.994;21.992;2022-12-29T10:09:40;5.30;;;2.90;;
50709;SDS011;37033;49.994;21.992;2022-12-29T10:12:45;6.20;;;3.40;;
50709;SDS011;37033;49.994;21.992;2022-12-29T10:15:50;6.30;;;3.50;;
50709;SDS011;37033;49.994;21.992;2022-12-29T10:18:52;7.10;;;2.90;;
50709;SDS011;37033;49.994;21.992;2022-12-29T10:21:59;7.20;;;2.90;;
50709;SDS011;37033;49.994;21.992;2022-12-29T10:24:56;5.80;;;3.90;;
50709;SDS011;37033;49.994;21.992;2022-12-29T10:27:50;4.60;;;3.10;;
50709;SDS011;37033;49.994;21.992;2022-12-29T10:30:43;6.50;;;3.30;;
50709;SDS011;37033;49.994;21.992;2022-12-29T10:33:36;6.90;;;3.40;;
50709;SDS011;37033;49.994;21.992;2022-12-29T10:36:30;5.70;;;3.80;;
50709;SDS011;37033;49.994;21.992;2022-12-29T10:39:28;5.70;;;3.90;;
50709;SDS011;37033;49.994;21.992;2022-12-29T10:42:24;4.90;;;3.40;;
50709;SDS011;37033;49.994;21.992;2022-12-29T10:45:16;5.20;;;3.60;;
50709;SDS011;37033;49.994;21.992;2022-12-29T10:48:11;6.50;;;3.30;;
50709;SDS011;37033;49.994;21.992;2022-12-29T10:51:08;5.30;;;3.20;;
50709;SDS011;37033;49.994;21.992;2022-12-29T10:54:05;4.40;;;3.30;;
50709;SDS011;37033;49.994;21.992;2022-12-29T10:57:00;5.50;;;3.40;;
50709;SDS011;37033;49.994;21.992;2022-12-29T10:59:52;6.70;;;3.90;;
50709;SDS011;37033;49.994;21.992;2022-12-29T11:02:50;5.40;;;3.30;;
50709;SDS011;37033;49.994;21.992;2022-12-29T11:06:01;6.80;;;3.40;;
50709;SDS011;37033;49.994;21.992;2022-12-29T11:08:57;5.50;;;3.50;;
50709;SDS011;37033;49.994;21.992;2022-12-29T11:11:56;7.30;;;4.20;;
50709;SDS011;37033;49.994;21.992;2022-12-29T11:14:45;7.10;;;3.80;;
50709;SDS011;37033;49.994;21.992;2022-12-29T11:17:48;6.90;;;4.30;;
50709;SDS011;37033;49.994;21.992;2022-12-29T11:20:39;4.40;;;2.90;;
50709;SDS011;37033;49.994;21.992;2022-12-29T11:23:31;4.80;;;3.30;;
50709;SDS011;37033;49.994;21.992;2022-12-29T11:26:24;6.70;;;3.70;;
50709;SDS011;37033;49.994;21.992;2022-12-29T11:29:25;6.00;;;3.70;;
50709;SDS011;37033;49.994;21.992;2022-12-29T11:32:19;6.10;;;3.90;;
50709;SDS011;37033;49.994;21.992;2022-12-29T11:35:17;6.90;;;3.90;;
50709;SDS011;37033;49.994;21.992;2022-12-29T11:38:20;6.70;;;3.50;;
50709;SDS011;37033;49.994;21.992;2022-12-29T11:41:13;7.30;;;4.30;;
50709;SDS011;37033;49.994;21.992;2022-12-29T11:44:12;8.40;;;3.50;;
50709;SDS011;37033;49.994;21.992;2022-12-29T11:47:02;5.90;;;4.10;;
50709;SDS011;37033;49.994;21.992;2022-12-29T11:49:53;5.90;;;3.60;;
50709;SDS011;37033;49.994;21.992;2022-12-29T11:52:46;6.40;;;3.90;;
50709;SDS011;37033;49.994;21.992;2022-12-29T11:55:39;5.50;;;4.20;;
50709;SDS011;37033;49.994;21.992;2022-12-29T11:58:38;6.40;;;4.10;;
50709;SDS011;37033;49.994;21.992;2022-12-29T12:01:29;9.50;;;3.80;;
50709;SDS011;37033;49.994;21.992;2022-12-29T12:07:15;9.00;;;4.40;;
50709;SDS011;37033;49.994;21.992;2022-12-29T12:10:12;8.60;;;3.90;;
50709;SDS011;37033;49.994;21.992;2022-12-29T12:13:12;5.30;;;3.70;;
50709;SDS011;37033;49.994;21.992;2022-12-29T12:16:08;6.40;;;4.50;;
50709;SDS011;37033;49.994;21.992;2022-12-29T12:19:01;6.60;;;4.50;;
50709;SDS011;37033;49.994;21.992;2022-12-29T12:22:00;6.90;;;4.60;;
50709;SDS011;37033;49.994;21.992;2022-12-29T12:24:59;5.80;;;3.70;;
50709;SDS011;37033;49.994;21.992;2022-12-29T12:27:57;7.50;;;3.40;;
50709;SDS011;37033;49.994;21.992;2022-12-29T12:30:54;9.50;;;3.20;;
50709;SDS011;37033;49.994;21.992;2022-12-29T12:33:46;6.30;;;4.00;;
50709;SDS011;37033;49.994;21.992;2022-12-29T12:36:48;6.70;;;3.70;;
50709;SDS011;37033;49.994;21.992;2022-12-29T12:39:49;5.70;;;3.90;;
50709;SDS011;37033;49.994;21.992;2022-12-29T12:42:57;7.00;;;3.70;;
50709;SDS011;37033;49.994;21.992;2022-12-29T12:46:00;8.70;;;4.00;;
50709;SDS011;37033;49.994;21.992;2022-12-29T12:52:22;7.20;;;4.20;;
50709;SDS011;37033;49.994;21.992;2022-12-29T12:55:27;6.10;;;3.80;;
50709;SDS011;37033;49.994;21.992;2022-12-29T12:58:30;5.40;;;4.30;;
50709;SDS011;37033;49.994;21.992;2022-12-29T13:01:33;7.20;;;4.10;;
50709;SDS011;37033;49.994;21.992;2022-12-29T13:07:50;6.60;;;4.10;;
50709;SDS011;37033;49.994;21.992;2022-12-29T13:10:55;7.10;;;4.00;;
50709;SDS011;37033;49.994;21.992;2022-12-29T13:13:56;8.10;;;4.20;;
50709;SDS011;37033;49.994;21.992;2022-12-29T13:16:56;8.10;;;4.10;;
50709;SDS011;37033;49.994;21.992;2022-12-29T13:19:56;5.50;;;3.50;;
50709;SDS011;37033;49.994;21.992;2022-12-29T13:22:57;8.30;;;5.10;;
50709;SDS011;37033;49.994;21.992;2022-12-29T13:25:54;7.90;;;4.70;;
50709;SDS011;37033;49.994;21.992;2022-12-29T13:28:54;7.80;;;4.90;;
50709;SDS011;37033;49.994;21.992;2022-12-29T13:31:52;11.10;;;5.10;;
50709;SDS011;37033;49.994;21.992;2022-12-29T13:34:52;7.30;;;4.60;;
50709;SDS011;37033;49.994;21.992;2022-12-29T13:37:53;8.70;;;4.60;;
50709;SDS011;37033;49.994;21.992;2022-12-29T13:40:49;6.00;;;4.30;;
50709;SDS011;37033;49.994;21.992;2022-12-29T13:43:42;10.00;;;5.30;;
50709;SDS011;37033;49.994;21.992;2022-12-29T13:46:35;8.90;;;5.00;;
50709;SDS011;37033;49.994;21.992;2022-12-29T13:49:26;8.50;;;5.10;;
50709;SDS011;37033;49.994;21.992;2022-12-29T13:52:18;5.50;;;3.60;;
50709;SDS011;37033;49.994;21.992;2022-12-29T13:55:22;7.00;;;4.30;;
50709;SDS011;37033;49.994;21.992;2022-12-29T13:58:17;8.00;;;4.50;;
50709;SDS011;37033;49.994;21.992;2022-12-29T14:01:15;7.30;;;5.00;;
50709;SDS011;37033;49.994;21.992;2022-12-29T14:04:11;6.80;;;4.70;;
50709;SDS011;37033;49.994;21.992;2022-12-29T14:07:02;7.80;;;4.80;;
50709;SDS011;37033;49.994;21.992;2022-12-29T14:09:54;8.10;;;5.10;;
50709;SDS011;37033;49.994;21.992;2022-12-29T14:12:45;7.60;;;5.20;;
50709;SDS011;37033;49.994;21.992;2022-12-29T14:15:36;7.10;;;5.30;;
50709;SDS011;37033;49.994;21.992;2022-12-29T14:18:28;9.10;;;5.50;;
50709;SDS011;37033;49.994;21.992;2022-12-29T14:21:22;10.90;;;5.30;;
50709;SDS011;37033;49.994;21.992;2022-12-29T14:27:51;7.40;;;5.30;;
50709;SDS011;37033;49.994;21.992;2022-12-29T14:30:48;7.50;;;5.20;;
50709;SDS011;37033;49.994;21.992;2022-12-29T14:33:39;13.30;;;5.30;;
50709;SDS011;37033;49.994;21.992;2022-12-29T14:36:53;9.00;;;5.40;;
50709;SDS011;37033;49.994;21.992;2022-12-29T14:42:33;8.10;;;5.30;;
50709;SDS011;37033;49.994;21.992;2022-12-29T14:45:27;7.80;;;6.00;;
50709;SDS011;37033;49.994;21.992;2022-12-29T14:48:34;11.70;;;6.20;;
50709;SDS011;37033;49.994;21.992;2022-12-29T14:51:30;8.40;;;5.70;;
50709;SDS011;37033;49.994;21.992;2022-12-29T14:54:43;13.10;;;6.00;;
50709;SDS011;37033;49.994;21.992;2022-12-29T14:57:38;8.70;;;5.70;;
50709;SDS011;37033;49.994;21.992;2022-12-29T15:00:31;8.20;;;5.50;;
50709;SDS011;37033;49.994;21.992;2022-12-29T15:03:23;10.70;;;6.10;;
50709;SDS011;37033;49.994;21.992;2022-12-29T15:06:17;8.40;;;5.30;;
50709;SDS011;37033;49.994;21.992;2022-12-29T15:09:12;10.20;;;6.10;;
50709;SDS011;37033;49.994;21.992;2022-12-29T15:12:14;10.50;;;6.60;;
50709;SDS011;37033;49.994;21.992;2022-12-29T15:15:18;9.60;;;5.10;;
50709;SDS011;37033;49.994;21.992;2022-12-29T15:18:15;12.10;;;6.00;;
50709;SDS011;37033;49.994;21.992;2022-12-29T15:21:12;13.50;;;5.70;;
50709;SDS011;37033;49.994;21.992;2022-12-29T15:24:04;9.00;;;5.60;;
50709;SDS011;37033;49.994;21.992;2022-12-29T15:26:58;9.30;;;5.90;;
50709;SDS011;37033;49.994;21.992;2022-12-29T15:29:59;11.30;;;6.70;;
50709;SDS011;37033;49.994;21.992;2022-12-29T15:32:50;8.00;;;5.80;;
50709;SDS011;37033;49.994;21.992;2022-12-29T15:35:40;13.00;;;7.40;;
50709;SDS011;37033;49.994;21.992;2022-12-29T15:38:30;14.40;;;7.20;;
50709;SDS011;37033;49.994;21.992;2022-12-29T15:41:28;11.40;;;6.70;;
50709;SDS011;37033;49.994;21.992;2022-12-29T15:44:44;9.60;;;6.60;;
50709;SDS011;37033;49.994;21.992;2022-12-29T15:47:34;11.20;;;6.90;;
50709;SDS011;37033;49.994;21.992;2022-12-29T15:50:25;14.20;;;7.30;;
50709;SDS011;37033;49.994;21.992;2022-12-29T15:53:19;12.40;;;7.30;;
50709;SDS011;37033;49.994;21.992;2022-12-29T15:56:14;12.00;;;7.00;;
50709;SDS011;37033;49.994;21.992;2022-12-29T15:59:04;14.20;;;7.90;;
50709;SDS011;37033;49.994;21.992;2022-12-29T16:02:09;10.20;;;7.20;;
50709;SDS011;37033;49.994;21.992;2022-12-29T16:04:59;14.40;;;7.40;;
50709;SDS011;37033;49.994;21.992;2022-12-29T16:07:56;12.10;;;7.60;;
50709;SDS011;37033;49.994;21.992;2022-12-29T16:10:47;15.70;;;8.90;;
50709;SDS011;37033;49.994;21.992;2022-12-29T16:13:39;13.50;;;7.70;;
50709;SDS011;37033;49.994;21.992;2022-12-29T16:16:30;11.10;;;7.70;;
50709;SDS011;37033;49.994;21.992;2022-12-29T16:19:24;11.70;;;7.90;;
50709;SDS011;37033;49.994;21.992;2022-12-29T16:22:19;13.20;;;8.70;;
50709;SDS011;37033;49.994;21.992;2022-12-29T16:25:15;14.70;;;7.90;;
50709;SDS011;37033;49.994;21.992;2022-12-29T16:28:14;12.90;;;7.70;;
50709;SDS011;37033;49.994;21.992;2022-12-29T16:31:06;10.80;;;7.10;;
50709;SDS011;37033;49.994;21.992;2022-12-29T16:34:21;10.70;;;6.50;;
50709;SDS011;37033;49.994;21.992;2022-12-29T16:37:27;10.30;;;7.00;;
50709;SDS011;37033;49.994;21.992;2022-12-29T16:40:24;13.30;;;7.30;;
50709;SDS011;37033;49.994;21.992;2022-12-29T16:43:20;13.50;;;8.00;;
50709;SDS011;37033;49.994;21.992;2022-12-29T16:46:18;13.10;;;8.00;;
50709;SDS011;37033;49.994;21.992;2022-12-29T16:49:16;10.80;;;8.10;;
50709;SDS011;37033;49.994;21.992;2022-12-29T16:52:13;16.20;;;8.00;;
50709;SDS011;37033;49.994;21.992;2022-12-29T16:55:15;11.20;;;7.70;;
50709;SDS011;37033;49.994;21.992;2022-12-29T16:58:11;12.00;;;7.30;;
50709;SDS011;37033;49.994;21.992;2022-12-29T17:01:06;16.20;;;9.20;;
50709;SDS011;37033;49.994;21.992;2022-12-29T17:04:04;16.90;;;8.10;;
50709;SDS011;37033;49.994;21.992;2022-12-29T17:06:56;13.20;;;7.80;;
50709;SDS011;37033;49.994;21.992;2022-12-29T17:09:45;15.50;;;8.40;;
50709;SDS011;37033;49.994;21.992;2022-12-29T17:12:36;10.80;;;6.30;;
50709;SDS011;37033;49.994;21.992;2022-12-29T17:15:27;12.60;;;8.10;;
50709;SDS011;37033;49.994;21.992;2022-12-29T17:18:18;13.00;;;8.40;;
50709;SDS011;37033;49.994;21.992;2022-12-29T17:21:08;16.20;;;9.70;;
50709;SDS011;37033;49.994;21.992;2022-12-29T17:23:58;46.20;;;17.00;;
50709;SDS011;37033;49.994;21.992;2022-12-29T17:26:48;23.60;;;11.10;;
50709;SDS011;37033;49.994;21.992;2022-12-29T17:29:41;14.40;;;8.80;;